Time;durP1;ratioP1;P1;durP2;ratioP2;P2;SDS_P1;SDS_P2;PMS_P1;PMS_P2;Temp;Humidity;BMP_temperature;BMP_pressure;BME280_temperature;BME280_humidity;BME280_pressure;Samples;Min_cycle;Max_cycle;Signal;HPM_P1;HPM_P2
2022/01/11 00:01:00;;;;;;;10.80;6.95;;;5.50;97.60;;;;;;10525399;28;20069;-67
2022/01/11 00:06:16;;;;;;;11.23;6.50;;;5.50;97.60;;;;;;10526362;28;20066;-68
2022/01/11 00:11:16;;;;;;;10.77;6.53;;;5.50;97.60;;;;;;10531997;28;20142;-68
2022/01/11 00:16:17;;;;;;;10.60;7.03;;;5.50;97.50;;;;;;10531197;28;20058;-69
2022/01/11 00:21:18;;;;;;;11.23;7.32;;;5.50;97.50;;;;;;10535796;28;20055;-67
2022/01/11 00:26:19;;;;;;;9.18;6.70;;;5.80;97.60;;;;;;10528240;28;20051;-69
2022/01/11 00:31:19;;;;;;;11.73;7.22;;;5.70;97.50;;;;;;10516095;28;20029;-68
2022/01/11 00:36:20;;;;;;;9.73;6.75;;;5.50;97.50;;;;;;10530370;28;20032;-67
2022/01/11 00:41:21;;;;;;;10.45;6.95;;;5.50;97.50;;;;;;10519122;28;20028;-68
2022/01/11 00:46:22;;;;;;;10.75;6.60;;;5.40;97.50;;;;;;10498496;28;20031;-67
2022/01/11 00:51:22;;;;;;;12.88;7.38;;;5.40;97.40;;;;;;10501493;28;20421;-67
2022/01/11 00:56:24;;;;;;;11.50;6.55;;;5.40;97.40;;;;;;10530047;28;20089;-66
2022/01/11 01:01:27;;;;;;;12.25;6.68;;;5.40;97.40;;;;;;10529443;28;20035;-67
2022/01/11 01:06:28;;;;;;;13.07;7.07;;;5.40;97.40;;;;;;10519292;28;20086;-68
2022/01/11 01:11:28;;;;;;;13.50;7.70;;;5.40;97.40;;;;;;10517266;28;20036;-67
2022/01/11 01:16:29;;;;;;;14.52;7.25;;;5.40;97.40;;;;;;10527034;28;20036;-66
2022/01/11 01:21:36;;;;;;;15.43;8.18;;;5.40;97.40;;;;;;10532464;28;20109;-68
2022/01/11 01:26:37;;;;;;;13.63;8.23;;;5.40;97.40;;;;;;10516215;28;20020;-68
2022/01/11 01:31:38;;;;;;;14.23;7.20;;;5.40;97.40;;;;;;10513873;28;20629;-68
2022/01/11 01:36:39;;;;;;;16.17;7.82;;;5.30;97.30;;;;;;10509137;28;20016;-67
2022/01/11 01:41:43;;;;;;;13.63;7.40;;;5.30;97.30;;;;;;10528964;28;20024;-69
2022/01/11 01:46:44;;;;;;;16.00;8.10;;;5.30;97.30;;;;;;10513596;28;20032;-68
2022/01/11 01:51:46;;;;;;;15.70;8.00;;;5.30;97.30;;;;;;10513585;28;20391;-67
2022/01/11 01:56:47;;;;;;;17.58;7.95;;;5.30;97.30;;;;;;10526790;28;20044;-67
2022/01/11 02:01:48;;;;;;;13.77;7.20;;;5.30;97.30;;;;;;10527602;28;20107;-67
2022/01/11 02:06:49;;;;;;;14.20;7.60;;;5.30;97.30;;;;;;10514846;28;20518;-67
2022/01/11 02:11:50;;;;;;;14.48;7.80;;;5.30;97.30;;;;;;10522919;28;20043;-67
2022/01/11 02:16:51;;;;;;;12.55;7.25;;;5.30;97.30;;;;;;10530121;28;20028;-67
2022/01/11 02:21:51;;;;;;;13.18;7.88;;;5.30;97.30;;;;;;10531761;28;20056;-68
2022/01/11 02:26:52;;;;;;;16.40;7.72;;;5.30;97.20;;;;;;10530795;28;20032;-69
2022/01/11 02:31:53;;;;;;;18.67;7.97;;;5.20;97.20;;;;;;10520071;28;20036;-70
2022/01/11 02:36:54;;;;;;;19.05;7.97;;;5.20;97.20;;;;;;10534330;28;20081;-69
2022/01/11 02:41:57;;;;;;;13.23;7.10;;;5.20;97.20;;;;;;10535087;28;20447;-71
2022/01/11 02:46:58;;;;;;;17.15;8.90;;;5.20;97.20;;;;;;10533812;28;20345;-68
2022/01/11 02:51:59;;;;;;;17.60;7.65;;;5.20;97.20;;;;;;10520066;28;20406;-67
2022/01/11 02:57:00;;;;;;;20.20;8.18;;;5.20;97.20;;;;;;10533639;28;20044;-69
2022/01/11 03:02:00;;;;;;;22.05;8.60;;;5.30;97.20;;;;;;10508245;28;20503;-67
2022/01/11 03:07:01;;;;;;;19.88;8.32;;;5.20;97.10;;;;;;10518897;28;20056;-67
2022/01/11 03:12:02;;;;;;;16.17;7.63;;;5.20;97.10;;;;;;10526486;28;20040;-71
2022/01/11 03:17:05;;;;;;;16.92;8.25;;;5.20;97.10;;;;;;10532505;28;20044;-69
2022/01/11 03:22:05;;;;;;;19.48;8.57;;;5.20;97.10;;;;;;10530280;28;20130;-67
2022/01/11 03:27:07;;;;;;;18.02;9.27;;;5.20;97.10;;;;;;10528953;28;20024;-67
2022/01/11 03:32:08;;;;;;;19.80;8.48;;;5.20;97.10;;;;;;10518538;28;20036;-68
2022/01/11 03:37:10;;;;;;;17.55;8.18;;;5.20;97.10;;;;;;10528499;28;20039;-67
2022/01/11 03:42:11;;;;;;;22.35;8.90;;;5.20;97.00;;;;;;10512738;28;20062;-67
2022/01/11 03:47:12;;;;;;;18.95;8.73;;;5.20;97.00;;;;;;10519223;28;20575;-67
2022/01/11 03:52:12;;;;;;;19.75;8.57;;;5.10;97.00;;;;;;10520883;28;20037;-69
2022/01/11 03:57:13;;;;;;;18.27;8.25;;;5.10;97.00;;;;;;10515485;28;20032;-68
2022/01/11 04:02:14;;;;;;;21.42;8.65;;;5.10;97.00;;;;;;10522989;28;20024;-67
2022/01/11 04:07:15;;;;;;;23.38;9.52;;;5.10;97.00;;;;;;10514598;28;20081;-70
2022/01/11 04:12:16;;;;;;;20.85;9.63;;;5.10;97.00;;;;;;10526167;28;20040;-68
2022/01/11 04:17:17;;;;;;;18.73;8.43;;;5.10;97.00;;;;;;10530503;28;20013;-67
2022/01/11 04:22:17;;;;;;;22.15;8.95;;;5.10;97.00;;;;;;10535109;28;20044;-69
2022/01/11 04:27:18;;;;;;;19.48;8.07;;;5.10;97.00;;;;;;10528431;28;20119;-68
2022/01/11 04:32:18;;;;;;;20.05;8.73;;;5.10;97.00;;;;;;10516370;28;20458;-68
2022/01/11 04:37:19;;;;;;;17.42;8.38;;;5.10;97.00;;;;;;10529057;28;20024;-68
2022/01/11 04:42:20;;;;;;;22.50;9.10;;;5.10;97.00;;;;;;10527268;28;20108;-68
2022/01/11 04:47:21;;;;;;;20.98;8.57;;;5.00;97.00;;;;;;10514313;28;20307;-67
2022/01/11 04:52:21;;;;;;;19.38;9.50;;;5.00;97.00;;;;;;10514950;28;20519;-68
2022/01/11 04:57:22;;;;;;;18.60;8.07;;;5.00;96.90;;;;;;10524091;28;20122;-70
2022/01/11 05:02:25;;;;;;;16.38;8.00;;;5.00;96.90;;;;;;10509504;28;20048;-69
2022/01/11 05:07:26;;;;;;;18.15;8.18;;;5.00;96.90;;;;;;10512674;28;20028;-70
2022/01/11 05:12:26;;;;;;;18.73;8.52;;;5.00;96.90;;;;;;10509038;28;20424;-69
2022/01/11 05:17:27;;;;;;;21.65;8.07;;;5.20;97.00;;;;;;10529964;28;20036;-69
2022/01/11 05:22:28;;;;;;;18.17;7.95;;;5.00;96.90;;;;;;10535835;28;20055;-68
2022/01/11 05:27:30;;;;;;;19.58;8.98;;;5.00;96.90;;;;;;10526557;28;20024;-70
2022/01/11 05:32:31;;;;;;;17.27;7.80;;;5.00;96.90;;;;;;10514539;28;20036;-69
2022/01/11 05:37:32;;;;;;;17.90;7.63;;;5.00;96.90;;;;;;10527801;28;20320;-68
2022/01/11 05:42:33;;;;;;;16.23;8.02;;;5.00;96.90;;;;;;10524009;28;20033;-69
2022/01/11 05:47:34;;;;;;;20.50;8.38;;;4.90;96.80;;;;;;10520431;28;20481;-67
2022/01/11 05:52:36;;;;;;;18.25;8.05;;;4.90;96.80;;;;;;10527338;28;20043;-67
2022/01/11 05:57:37;;;;;;;17.00;7.78;;;4.90;96.80;;;;;;10527821;28;20027;-68
2022/01/11 06:02:41;;;;;;;16.73;7.97;;;4.90;96.80;;;;;;10533845;28;20038;-69
2022/01/11 06:07:41;;;;;;;16.02;7.05;;;4.90;96.80;;;;;;10529756;28;20028;-67
2022/01/11 06:12:42;;;;;;;18.60;7.97;;;4.90;96.80;;;;;;10535545;28;20459;-68
2022/01/11 06:17:43;;;;;;;16.77;7.90;;;4.90;96.80;;;;;;10535417;28;20481;-67
2022/01/11 06:22:44;;;;;;;14.27;6.90;;;4.90;96.80;;;;;;10520749;28;20394;-67
2022/01/11 06:27:45;;;;;;;13.73;7.13;;;5.60;96.90;;;;;;10535220;28;20030;-70
2022/01/11 06:32:45;;;;;;;17.00;7.18;;;4.90;96.80;;;;;;10518217;28;20032;-68
2022/01/11 06:37:46;;;;;;;14.23;7.47;;;4.90;96.70;;;;;;10526729;28;20020;-67
2022/01/11 06:42:53;;;;;;;15.15;6.22;;;4.80;96.70;;;;;;10526545;28;20024;-69
2022/01/11 06:47:53;;;;;;;15.57;7.22;;;4.80;96.80;;;;;;10506603;28;20032;-66
2022/01/11 06:52:54;;;;;;;13.55;6.47;;;4.90;96.70;;;;;;10530911;28;20044;-66
2022/01/11 06:57:55;;;;;;;12.80;6.50;;;4.80;96.70;;;;;;10522360;28;20063;-67
2022/01/11 07:02:56;;;;;;;14.50;6.93;;;4.80;96.70;;;;;;10520611;28;20101;-68
2022/01/11 07:07:56;;;;;;;13.77;7.13;;;4.80;96.70;;;;;;10527326;28;20017;-71
2022/01/11 07:12:57;;;;;;;13.63;6.88;;;4.80;96.70;;;;;;10513459;28;20089;-69
2022/01/11 07:17:58;;;;;;;17.80;7.68;;;4.80;96.70;;;;;;10525053;28;20470;-65
2022/01/11 07:22:59;;;;;;;16.45;7.22;;;4.70;96.70;;;;;;10535870;28;20041;-66
2022/01/11 07:28:00;;;;;;;13.73;6.82;;;4.70;96.70;;;;;;10534904;28;20016;-67
2022/01/11 07:33:01;;;;;;;14.73;6.72;;;4.70;97.00;;;;;;10511121;28;20036;-66
2022/01/11 07:38:02;;;;;;;15.50;7.07;;;4.70;96.70;;;;;;10515682;28;20295;-65
2022/01/11 07:43:03;;;;;;;16.13;6.90;;;4.70;96.70;;;;;;10509864;28;20086;-66
2022/01/11 07:48:04;;;;;;;15.40;7.10;;;4.70;96.70;;;;;;10519029;28;20051;-64
2022/01/11 07:53:05;;;;;;;14.80;7.05;;;4.70;96.70;;;;;;10504062;28;20036;-65
2022/01/11 07:58:06;;;;;;;18.10;7.35;;;4.70;96.70;;;;;;10506962;28;20389;-64
2022/01/11 08:03:07;;;;;;;14.98;6.75;;;4.90;96.70;;;;;;10515077;28;20034;-65
2022/01/11 08:08:07;;;;;;;15.50;6.68;;;4.80;96.70;;;;;;10525401;28;20024;-65
2022/01/11 08:13:10;;;;;;;16.13;7.40;;;5.20;96.80;;;;;;10520813;28;20040;-65
2022/01/11 08:18:11;;;;;;;14.50;7.45;;;4.70;96.70;;;;;;10522177;28;20522;-64
2022/01/11 08:23:12;;;;;;;14.10;7.05;;;4.70;96.70;;;;;;10477178;28;20055;-66
2022/01/11 08:28:13;;;;;;;17.55;7.63;;;4.70;96.70;;;;;;10485502;28;20566;-65
2022/01/11 08:33:14;;;;;;;17.55;7.72;;;4.70;96.60;;;;;;10472796;28;20044;-65
2022/01/11 08:38:15;;;;;;;17.88;8.20;;;4.70;96.60;;;;;;10484989;28;20097;-65
2022/01/11 08:43:16;;;;;;;16.88;7.72;;;4.70;96.60;;;;;;10475141;28;20036;-65
2022/01/11 08:48:17;;;;;;;17.98;8.25;;;4.80;96.60;;;;;;10474135;28;20033;-65
2022/01/11 08:53:17;;;;;;;17.48;7.40;;;4.80;96.60;;;;;;10483376;28;20127;-66
2022/01/11 08:58:20;;;;;;;19.10;7.63;;;4.80;96.60;;;;;;10464136;28;20449;-65
2022/01/11 09:03:23;;;;;;;18.27;7.88;;;4.80;96.80;;;;;;10485072;28;20386;-65
2022/01/11 09:08:24;;;;;;;20.48;8.75;;;4.80;96.60;;;;;;10458239;28;20025;-65
2022/01/11 09:13:26;;;;;;;21.58;9.27;;;4.80;96.60;;;;;;10469742;28;20033;-66
2022/01/11 09:18:27;;;;;;;20.67;8.77;;;4.80;96.60;;;;;;10460628;28;20024;-65
2022/01/11 09:23:28;;;;;;;18.00;8.70;;;4.90;96.60;;;;;;10523113;28;20050;-66
2022/01/11 09:28:28;;;;;;;17.58;8.80;;;4.90;96.60;;;;;;10517851;28;20034;-66
2022/01/11 09:33:29;;;;;;;19.90;9.35;;;4.90;96.60;;;;;;10512049;28;20039;-66
2022/01/11 09:38:30;;;;;;;21.73;9.27;;;4.90;96.60;;;;;;10525445;28;20366;-66
2022/01/11 09:43:31;;;;;;;22.73;10.30;;;4.90;96.60;;;;;;10500047;28;20420;-64
2022/01/11 09:48:32;;;;;;;19.00;8.52;;;4.90;96.60;;;;;;10511991;28;20041;-64
2022/01/11 09:53:33;;;;;;;22.85;9.60;;;4.90;96.60;;;;;;10525159;28;20047;-63
2022/01/11 09:58:35;;;;;;;21.63;9.48;;;4.90;96.60;;;;;;10524333;28;20024;-65
2022/01/11 10:04:05;;;;;;;16.83;8.50;;;4.90;96.60;;;;;;10515963;28;20020;-65
2022/01/11 10:09:16;;;;;;;20.75;8.48;;;4.90;96.60;;;;;;10518099;28;20040;-64
2022/01/11 10:14:25;;;;;;;22.27;9.38;;;4.90;96.60;;;;;;10511173;28;20028;-65
2022/01/11 10:19:26;;;;;;;;;;;4.90;96.60;;;;;;10531101;28;20099;-65
2022/01/11 10:24:37;;;;;;;18.83;8.85;;;5.10;96.50;;;;;;10513958;28;19915;-65
2022/01/11 10:29:41;;;;;;;25.35;10.35;;;4.90;96.60;;;;;;10507058;28;20040;-64
2022/01/11 10:34:47;;;;;;;22.05;8.75;;;5.10;96.90;;;;;;10509487;28;20027;-65
2022/01/11 10:39:48;;;;;;;23.60;9.40;;;5.00;96.60;;;;;;10510349;28;20032;-65
2022/01/11 10:44:53;;;;;;;24.92;9.40;;;5.00;96.60;;;;;;10512488;28;20032;-65
2022/01/11 10:49:56;;;;;;;20.30;9.43;;;5.10;96.60;;;;;;10529819;28;20078;-65
2022/01/11 10:54:58;;;;;;;21.08;9.00;;;5.10;96.50;;;;;;10519355;28;20398;-64
2022/01/11 11:00:07;;;;;;;24.15;9.13;;;5.20;96.40;;;;;;10531365;28;20020;-66
2022/01/11 11:05:17;;;;;;;20.90;8.32;;;5.30;96.40;;;;;;10518519;28;20048;-64
2022/01/11 11:10:39;;;;;;;17.48;8.05;;;5.40;96.30;;;;;;10513400;28;20032;-68
2022/01/11 11:15:40;;;;;;;16.25;8.38;;;5.40;96.30;;;;;;10531163;28;20024;-66
2022/01/11 11:20:41;;;;;;;19.80;9.10;;;5.50;96.40;;;;;;10517734;28;20524;-65
2022/01/11 11:25:41;;;;;;;20.75;9.07;;;5.60;96.30;;;;;;10528347;28;20034;-66
2022/01/11 11:30:48;;;;;;;17.00;8.48;;;5.60;96.30;;;;;;10516943;28;20045;-67
2022/01/11 11:35:50;;;;;;;17.08;8.10;;;5.60;96.30;;;;;;10517244;28;20095;-67
2022/01/11 11:40:52;;;;;;;19.75;8.75;;;6.10;96.60;;;;;;10521236;28;20020;-67
2022/01/11 11:45:53;;;;;;;16.90;8.35;;;5.70;96.30;;;;;;10518055;28;20051;-67
2022/01/11 11:51:06;;;;;;;17.45;7.90;;;5.80;96.20;;;;;;10524101;28;20123;-67
2022/01/11 11:56:26;;;;;;;20.05;8.57;;;5.90;96.30;;;;;;10503587;28;20032;-67
2022/01/11 12:01:45;;;;;;;19.20;7.85;;;5.90;96.20;;;;;;10506133;28;20074;-67
2022/01/11 12:06:47;;;;;;;18.23;8.10;;;6.00;96.10;;;;;;10510047;28;20024;-67
2022/01/11 12:11:51;;;;;;;16.13;7.90;;;6.00;96.20;;;;;;10521467;28;20063;-67
2022/01/11 12:16:54;;;;;;;14.20;7.22;;;6.00;96.20;;;;;;10530171;28;20051;-67
2022/01/11 12:21:54;;;;;;;19.10;7.90;;;6.00;96.20;;;;;;10536929;28;20513;-66
2022/01/11 12:26:58;;;;;;;18.55;7.95;;;6.00;96.20;;;;;;10520608;28;20115;-67
2022/01/11 12:32:08;;;;;;;16.75;7.60;;;6.00;96.20;;;;;;10505719;28;20036;-67
2022/01/11 12:37:19;;;;;;;;;;;6.00;96.20;;;;;;10527193;28;20028;-67
2022/01/11 12:42:28;;;;;;;17.80;6.85;;;5.90;96.20;;;;;;10516915;28;19909;-67
2022/01/11 12:47:43;;;;;;;15.70;6.53;;;5.90;96.30;;;;;;10520093;28;20016;-68
2022/01/11 12:52:45;;;;;;;14.77;6.95;;;5.90;96.30;;;;;;10522091;28;20124;-66
2022/01/11 12:57:46;;;;;;;18.35;7.93;;;5.90;96.40;;;;;;10514831;28;20112;-66
2022/01/11 13:02:47;;;;;;;16.73;8.15;;;5.90;96.40;;;;;;10524735;28;20035;-66
2022/01/11 13:07:50;;;;;;;19.45;8.20;;;5.90;96.50;;;;;;10504218;28;20012;-66
2022/01/11 13:13:05;;;;;;;18.05;7.20;;;5.90;96.50;;;;;;10514630;28;20043;-66
2022/01/11 13:18:11;;;;;;;16.25;7.40;;;5.90;96.50;;;;;;10518383;28;20043;-67
2022/01/11 13:28:21;;;;;;;16.23;7.32;;;5.90;96.60;;;;;;10504276;28;20423;-66
2022/01/11 13:33:25;;;;;;;17.00;7.35;;;5.70;96.60;;;;;;10513434;28;20085;-67
2022/01/11 13:38:29;;;;;;;17.27;7.55;;;6.30;96.80;;;;;;10523199;28;20570;-66
2022/01/11 13:43:34;;;;;;;16.25;6.95;;;5.80;96.70;;;;;;10506560;28;20024;-67
2022/01/11 13:48:36;;;;;;;15.05;6.82;;;5.90;96.70;;;;;;10499635;28;20418;-66
2022/01/11 13:53:38;;;;;;;13.73;6.43;;;5.90;96.70;;;;;;10503586;28;20046;-67
2022/01/11 13:58:46;;;;;;;17.80;6.93;;;5.90;96.80;;;;;;10515280;28;20037;-67
2022/01/11 14:03:48;;;;;;;16.47;7.10;;;5.90;96.80;;;;;;10519648;28;20077;-65
2022/01/11 14:08:53;;;;;;;19.02;7.50;;;5.90;96.80;;;;;;10510048;28;20352;-66
2022/01/11 14:13:58;;;;;;;14.40;6.63;;;5.90;96.80;;;;;;10516515;28;20024;-67
2022/01/11 14:19:08;;;;;;;15.05;6.75;;;6.10;96.90;;;;;;10520775;28;20402;-67
2022/01/11 14:24:09;;;;;;;15.20;6.70;;;5.90;96.90;;;;;;10521514;28;20041;-66
2022/01/11 14:29:20;;;;;;;19.00;7.28;;;5.90;96.90;;;;;;10530249;28;20036;-67
2022/01/11 14:34:21;;;;;;;15.23;6.43;;;5.90;96.90;;;;;;10519368;28;20024;-68
2022/01/11 14:39:21;;;;;;;17.00;7.15;;;5.90;97.00;;;;;;10499012;28;20028;-66
2022/01/11 14:44:24;;;;;;;16.48;6.85;;;5.90;97.00;;;;;;10520400;28;20043;-67
2022/01/11 14:49:34;;;;;;;16.45;6.80;;;5.90;97.00;;;;;;10532128;28;20074;-68
2022/01/11 14:54:35;;;;;;;;;;;5.90;97.00;;;;;;10520882;28;20501;-67
2022/01/11 14:59:37;;;;;;;15.10;7.15;;;5.90;97.00;;;;;;10512735;28;19986;-68
2022/01/11 15:04:41;;;;;;;13.88;6.40;;;5.90;97.00;;;;;;10530215;28;20026;-68
2022/01/11 15:09:45;;;;;;;18.50;6.97;;;5.90;97.00;;;;;;10512869;28;20395;-68
2022/01/11 15:14:48;;;;;;;14.90;6.32;;;6.00;97.10;;;;;;10520621;28;20025;-68
2022/01/11 15:19:49;;;;;;;14.65;6.38;;;5.90;97.10;;;;;;10526504;28;20049;-69
2022/01/11 15:24:50;;;;;;;17.33;6.55;;;5.80;97.10;;;;;;10510267;28;20541;-69
2022/01/11 15:29:51;;;;;;;16.48;7.45;;;5.90;97.10;;;;;;10491408;28;20067;-69
2022/01/11 15:34:51;;;;;;;14.57;6.30;;;5.80;97.10;;;;;;10506319;28;20032;-68
2022/01/11 15:39:52;;;;;;;16.92;6.60;;;5.90;97.10;;;;;;10517623;28;20032;-66
2022/01/11 15:44:53;;;;;;;14.88;6.38;;;5.90;97.20;;;;;;10513445;28;20047;-69
2022/01/11 15:49:54;;;;;;;15.00;6.55;;;5.90;97.20;;;;;;10515166;28;20044;-67
2022/01/11 15:54:55;;;;;;;19.13;6.75;;;5.90;97.20;;;;;;10505446;28;20032;-69
2022/01/11 15:59:56;;;;;;;16.52;5.90;;;5.90;97.20;;;;;;10517695;28;20096;-68
2022/01/11 16:04:57;;;;;;;15.50;6.47;;;5.90;97.20;;;;;;10517624;28;20034;-68
2022/01/11 16:09:58;;;;;;;13.73;6.13;;;5.90;97.30;;;;;;10505408;28;20042;-63
2022/01/11 16:14:59;;;;;;;15.57;6.40;;;6.10;97.30;;;;;;10518843;28;20497;-64
2022/01/11 16:19:59;;;;;;;14.48;6.53;;;5.90;97.30;;;;;;10529952;28;20288;-65
2022/01/11 16:25:00;;;;;;;16.40;6.75;;;5.90;97.30;;;;;;10520434;28;20025;-65
2022/01/11 16:30:25;;;;;;;16.17;6.28;;;5.90;97.30;;;;;;10511999;28;20044;-66
2022/01/11 16:35:26;;;;;;;13.80;6.22;;;5.90;97.30;;;;;;10526907;28;20024;-63
2022/01/11 16:45:39;;;;;;;17.17;7.28;;;5.90;97.40;;;;;;10515866;28;20496;-65
2022/01/11 16:50:40;;;;;;;19.73;7.40;;;5.90;97.40;;;;;;10526978;28;20035;-67
2022/01/11 16:55:41;;;;;;;12.95;6.13;;;5.90;97.40;;;;;;10503166;28;20062;-64
2022/01/11 17:00:42;;;;;;;19.52;6.97;;;5.90;97.40;;;;;;10499115;28;20032;-68
2022/01/11 17:05:43;;;;;;;18.98;6.82;;;5.90;97.60;;;;;;10510701;28;20016;-66
2022/01/11 17:10:44;;;;;;;15.50;6.75;;;5.90;97.50;;;;;;10514666;28;20452;-66
2022/01/11 17:15:44;;;;;;;17.38;6.97;;;6.00;97.50;;;;;;10517315;28;20103;-66
2022/01/11 17:20:45;;;;;;;15.43;6.63;;;6.00;97.50;;;;;;10535074;28;20117;-67
2022/01/11 17:25:46;;;;;;;16.05;7.28;;;5.90;97.50;;;;;;10522471;28;20083;-67
2022/01/11 17:30:47;;;;;;;14.90;6.45;;;6.00;97.50;;;;;;10505295;28;20037;-67
2022/01/11 17:35:48;;;;;;;15.00;6.35;;;5.90;97.50;;;;;;10501441;28;20192;-66
2022/01/11 17:40:49;;;;;;;16.80;6.78;;;5.90;97.50;;;;;;10506836;28;20469;-68
2022/01/11 17:45:50;;;;;;;14.88;6.15;;;5.90;97.50;;;;;;10516925;28;20112;-64
2022/01/11 17:50:51;;;;;;;14.63;6.35;;;5.90;97.50;;;;;;10524309;28;20048;-68
2022/01/11 17:55:54;;;;;;;15.82;6.22;;;5.90;97.50;;;;;;10511411;28;20024;-72
2022/01/11 18:00:55;;;;;;;16.00;7.25;;;5.90;97.60;;;;;;10525079;28;20077;-65
2022/01/11 18:05:56;;;;;;;17.15;7.15;;;6.00;97.70;;;;;;10500849;28;20051;-64
2022/01/11 18:10:57;;;;;;;17.23;7.30;;;6.10;97.80;;;;;;10512420;28;20079;-68
2022/01/11 18:15:58;;;;;;;14.80;5.90;;;6.20;97.80;;;;;;10510073;28;20115;-66
2022/01/11 18:20:58;;;;;;;16.38;6.18;;;6.20;97.80;;;;;;10531494;28;20060;-65
2022/01/11 18:25:59;;;;;;;16.17;7.30;;;6.20;97.80;;;;;;10518553;28;20073;-68
2022/01/11 18:31:00;;;;;;;15.90;6.75;;;6.10;97.80;;;;;;10509269;28;20058;-65
2022/01/11 18:36:01;;;;;;;15.07;6.88;;;6.10;97.80;;;;;;10506901;28;20036;-66
2022/01/11 18:41:02;;;;;;;17.25;6.70;;;6.10;97.90;;;;;;10502565;28;20028;-64
2022/01/11 18:46:02;;;;;;;18.75;7.38;;;6.10;97.90;;;;;;10502930;28;20327;-65
2022/01/11 18:51:03;;;;;;;16.95;7.25;;;6.10;97.90;;;;;;10498442;28;20071;-65
2022/01/11 18:56:04;;;;;;;16.90;6.97;;;6.10;97.90;;;;;;10499346;28;20036;-64
2022/01/11 19:01:05;;;;;;;18.67;7.00;;;6.00;97.80;;;;;;10503919;28;20059;-66
2022/01/11 19:06:07;;;;;;;20.00;7.85;;;6.00;97.80;;;;;;10519271;28;20069;-67
2022/01/11 19:11:08;;;;;;;15.57;6.55;;;6.00;97.80;;;;;;10512705;28;20566;-67
2022/01/11 19:16:09;;;;;;;17.30;7.22;;;6.00;97.80;;;;;;10496526;28;20020;-66
2022/01/11 19:21:10;;;;;;;17.58;7.60;;;6.00;97.80;;;;;;10520358;28;20056;-62
2022/01/11 19:26:11;;;;;;;18.48;7.50;;;6.00;97.80;;;;;;10521237;28;20362;-66
2022/01/11 19:31:12;;;;;;;19.58;8.02;;;6.00;97.80;;;;;;10518318;28;20041;-66
2022/01/11 19:36:12;;;;;;;16.77;7.55;;;6.00;97.80;;;;;;10517249;28;20082;-64
2022/01/11 19:41:13;;;;;;;18.17;7.72;;;6.00;97.80;;;;;;10514879;28;20562;-63
2022/01/11 19:46:16;;;;;;;19.55;8.05;;;6.00;97.80;;;;;;10519317;28;20016;-67
2022/01/11 19:51:17;;;;;;;19.13;8.23;;;6.00;97.80;;;;;;10512712;28;20049;-66
2022/01/11 19:56:18;;;;;;;16.95;6.70;;;6.00;97.80;;;;;;10516233;28;20070;-67
2022/01/11 20:01:19;;;;;;;17.20;6.70;;;6.00;97.80;;;;;;10497445;28;20086;-66
2022/01/11 20:06:20;;;;;;;19.88;7.53;;;6.00;97.80;;;;;;10516357;28;20099;-67
2022/01/11 20:11:22;;;;;;;18.92;7.78;;;6.00;97.80;;;;;;10499362;28;20409;-66
2022/01/11 20:16:24;;;;;;;17.23;7.63;;;6.00;97.80;;;;;;10503656;28;20028;-66
2022/01/11 20:21:33;;;;;;;19.45;7.43;;;6.00;97.80;;;;;;10503952;28;20052;-66
2022/01/11 20:31:54;;;;;;;15.88;7.05;;;6.00;97.90;;;;;;10506643;28;20032;-66
2022/01/11 20:37:01;;;;;;;18.08;7.57;;;6.00;98.10;;;;;;10519050;28;20540;-63
2022/01/11 20:42:05;;;;;;;16.85;7.03;;;6.00;97.90;;;;;;10511866;28;20027;-66
2022/01/11 20:47:08;;;;;;;16.30;6.72;;;6.00;97.90;;;;;;10498035;28;20524;-66
2022/01/11 20:57:13;;;;;;;20.80;7.85;;;6.20;98.00;;;;;;10508046;28;20028;-65
2022/01/11 21:02:13;;;;;;;15.82;7.72;;;6.00;98.00;;;;;;10509460;28;20032;-64
2022/01/11 21:07:14;;;;;;;17.42;7.28;;;6.00;98.00;;;;;;10526090;28;20028;-65
2022/01/11 21:12:15;;;;;;;15.27;7.82;;;6.00;98.00;;;;;;10513617;28;20040;-64
2022/01/11 21:22:45;;;;;;;16.00;7.78;;;6.30;98.10;;;;;;10512927;28;20048;-66
2022/01/11 21:27:45;;;;;;;15.35;7.20;;;6.00;98.10;;;;;;10510438;28;20077;-65
2022/01/11 21:32:47;;;;;;;18.75;7.97;;;6.00;98.00;;;;;;10506630;28;20060;-65
2022/01/11 21:37:48;;;;;;;15.55;7.32;;;6.00;98.10;;;;;;10501650;28;20048;-66
2022/01/11 21:42:48;;;;;;;15.52;7.72;;;6.00;98.10;;;;;;10509307;28;20029;-66
2022/01/11 21:47:49;;;;;;;18.05;7.53;;;6.00;98.10;;;;;;10509563;28;20474;-63
2022/01/11 21:52:51;;;;;;;18.38;7.85;;;6.00;98.10;;;;;;10503054;28;20573;-65
2022/01/11 21:57:52;;;;;;;15.52;7.68;;;6.00;98.10;;;;;;10505654;28;20493;-65
2022/01/11 22:02:53;;;;;;;15.88;7.43;;;6.00;98.20;;;;;;10495520;28;20514;-61
2022/01/11 22:07:54;;;;;;;16.38;7.40;;;6.00;98.20;;;;;;10508143;28;20050;-65
2022/01/11 22:12:55;;;;;;;13.75;6.72;;;6.00;98.20;;;;;;10501976;28;20115;-65
2022/01/11 22:17:57;;;;;;;17.17;7.63;;;6.00;98.20;;;;;;10506385;28;20028;-65
2022/01/11 22:22:58;;;;;;;18.20;7.60;;;6.00;98.20;;;;;;10506308;28;20064;-63
2022/01/11 22:27:59;;;;;;;16.30;7.32;;;6.20;98.30;;;;;;10502867;28;20543;-64
2022/01/11 22:32:59;;;;;;;17.90;7.63;;;6.00;98.20;;;;;;10500776;28;20052;-65
2022/01/11 22:38:00;;;;;;;15.75;8.00;;;6.10;98.30;;;;;;10510818;28;21399;-64
2022/01/11 22:43:01;;;;;;;16.80;7.82;;;6.10;98.30;;;;;;10526732;28;20032;-65
2022/01/11 22:48:02;;;;;;;17.30;8.48;;;6.00;98.30;;;;;;10527728;28;20032;-66
2022/01/11 22:53:03;;;;;;;17.05;7.55;;;6.10;98.30;;;;;;10519183;28;20046;-65
2022/01/11 22:58:04;;;;;;;17.15;7.45;;;6.40;98.40;;;;;;10501349;28;20477;-65
2022/01/11 23:03:05;;;;;;;19.15;7.78;;;6.10;98.30;;;;;;10501496;28;20114;-65
2022/01/11 23:08:07;;;;;;;16.40;7.53;;;6.10;98.60;;;;;;10530872;28;20028;-66
2022/01/11 23:13:31;;;;;;;16.92;7.97;;;6.30;98.40;;;;;;10513156;28;20117;-65
2022/01/11 23:18:32;;;;;;;14.90;7.22;;;6.10;98.40;;;;;;10526333;28;20028;-65
2022/01/11 23:23:34;;;;;;;15.95;7.72;;;6.10;98.40;;;;;;10530989;28;20048;-66
2022/01/11 23:28:35;;;;;;;18.05;8.15;;;6.10;98.40;;;;;;10527855;28;20436;-64
2022/01/11 23:33:36;;;;;;;15.90;7.78;;;6.10;98.40;;;;;;10524820;28;20040;-63
2022/01/11 23:38:45;;;;;;;15.95;7.57;;;6.10;98.40;;;;;;10517005;28;20435;-63
2022/01/11 23:44:07;;;;;;;17.27;8.35;;;6.10;98.40;;;;;;10519970;28;20392;-63
2022/01/11 23:49:08;;;;;;;16.50;7.72;;;6.10;98.40;;;;;;10517980;28;20036;-65
2022/01/11 23:54:09;;;;;;;18.77;8.45;;;6.10;98.40;;;;;;10529981;28;20024;-65
2022/01/11 23:59:11;;;;;;;19.25;8.63;;;6.10;98.40;;;;;;10531050;28;20043;-66
